createdAt,value
2022-09-23T00:02:10.874Z,101782.16
2022-09-23T00:04:38.926Z,101778.59
2022-09-23T00:07:06.810Z,101770.53
2022-09-23T00:09:34.877Z,101781.25
2022-09-23T00:12:08.996Z,101779.63
2022-09-23T00:14:39.872Z,101788.53
2022-09-23T00:17:07.987Z,101779.63
2022-09-23T00:19:36.169Z,101780.47
2022-09-23T00:22:04.282Z,101777.88
2022-09-23T00:24:34.863Z,101778.75
2022-09-23T00:27:02.842Z,101780.53
2022-09-23T00:29:31.872Z,101775.28
2022-09-23T00:32:03.721Z,101768.19
2022-09-23T00:34:32.241Z,101767.22
2022-09-23T00:37:04.492Z,101765.50
2022-09-23T00:39:32.690Z,101772.69
2022-09-23T00:42:00.555Z,101774.50
2022-09-23T00:44:56.793Z,101766.50
2022-09-23T00:47:32.833Z,101762.88
2022-09-23T00:50:09.561Z,101762.03
2022-09-23T00:52:38.162Z,101765.66
2022-09-23T00:55:10.016Z,101770.06
2022-09-23T00:57:39.893Z,101762.09
2022-09-23T01:00:09.611Z,101763.94
2022-09-23T01:02:39.526Z,101755.88
2022-09-23T01:05:09.242Z,101755.94
2022-09-23T01:07:37.200Z,101757.75
2022-09-23T01:10:06.663Z,101755.94
2022-09-23T01:12:51.910Z,101757.75
2022-09-23T01:15:23.033Z,101755.06
2022-09-23T01:18:03.451Z,101756.03
2022-09-23T01:20:56.938Z,101748.00
2022-09-23T01:23:52.877Z,101743.50
2022-09-23T01:26:45.769Z,101743.59
2022-09-23T01:29:51.934Z,101740.91
2022-09-23T01:32:36.967Z,101739.16
2022-09-23T01:35:11.717Z,101733.81
2022-09-23T01:37:47.701Z,101733.81
2022-09-23T01:40:21.981Z,101732.94
2022-09-23T01:42:55.637Z,101730.34
2022-09-23T01:45:29.568Z,101732.06
2022-09-23T01:48:04.511Z,101730.34
2022-09-23T01:50:55.301Z,101728.63
2022-09-23T01:53:29.654Z,101728.63
2022-09-23T01:56:03.491Z,101726.84
2022-09-23T01:58:38.221Z,101729.53
2022-09-23T02:01:08.211Z,101725.06
2022-09-23T02:03:42.718Z,101726.00
2022-09-23T02:06:15.399Z,101722.47
2022-09-23T02:08:48.073Z,101727.81
2022-09-23T02:11:18.220Z,101723.41
2022-09-23T02:13:53.400Z,101720.72
2022-09-23T02:16:29.652Z,101726.94
2022-09-23T02:19:05.266Z,101717.25
2022-09-23T02:21:39.253Z,101721.69
2022-09-23T02:24:12.551Z,101714.56
2022-09-23T02:26:48.862Z,101712.84
2022-09-23T02:29:22.519Z,101711.88
2022-09-23T02:31:59.289Z,101713.69
2022-09-23T02:34:42.758Z,101703.09
2022-09-23T02:37:23.736Z,101707.47
2022-09-23T02:40:02.630Z,101705.66
2022-09-23T02:42:44.786Z,101702.13
2022-09-23T02:45:12.742Z,101700.41
2022-09-23T02:47:45.076Z,101688.81
2022-09-23T02:50:14.450Z,101690.66
2022-09-23T02:52:43.515Z,101680.00
2022-09-23T02:55:13.221Z,101675.50
2022-09-23T02:57:41.301Z,101676.44
2022-09-23T03:00:10.535Z,101678.25
2022-09-23T03:03:02.696Z,101678.19
2022-09-23T03:05:38.749Z,101676.44
2022-09-23T03:08:29.652Z,101680.00
2022-09-23T03:11:06.225Z,101674.72
2022-09-23T03:13:43.872Z,101669.38
2022-09-23T03:16:22.083Z,101665.84
2022-09-23T03:18:57.237Z,101662.28
2022-09-23T03:21:33.699Z,101665.84
2022-09-23T03:24:05.876Z,101668.56
2022-09-23T03:26:35.613Z,101660.47
2022-09-23T03:29:05.264Z,101660.47
2022-09-23T03:31:37.640Z,101650.78
2022-09-23T03:34:11.614Z,101654.31
2022-09-23T03:36:51.982Z,101655.19
2022-09-23T03:39:28.528Z,101656.03
2022-09-23T03:42:00.352Z,101653.38
2022-09-23T03:44:30.005Z,101647.16
2022-09-23T03:47:00.137Z,101646.28
2022-09-23T03:49:35.934Z,101649.91
2022-09-23T03:52:05.389Z,101640.06
2022-09-23T03:54:34.935Z,101635.66
2022-09-23T03:57:04.065Z,101641.03
2022-09-23T03:59:32.141Z,101635.72
2022-09-23T04:02:00.871Z,101635.66
2022-09-23T04:04:29.299Z,101628.63
2022-09-23T04:06:57.397Z,101629.50
2022-09-23T04:09:26.983Z,101636.66
2022-09-23T04:11:55.493Z,101634.84
2022-09-23T04:14:26.528Z,101633.13
2022-09-23T04:16:54.607Z,101627.78
2022-09-23T04:19:22.964Z,101628.72
2022-09-23T04:21:51.204Z,101631.31
2022-09-23T04:24:19.173Z,101623.44
2022-09-23T04:26:52.429Z,101632.41
2022-09-23T04:29:20.879Z,101629.59
2022-09-23T04:31:49.211Z,101626.91
2022-09-23T04:34:17.649Z,101626.81
2022-09-23T04:36:46.739Z,101631.25
2022-09-23T04:39:15.531Z,101627.63
2022-09-23T04:41:43.561Z,101630.31
2022-09-23T04:44:14.542Z,101630.31
2022-09-23T04:46:43.872Z,101621.41
2022-09-23T04:49:12.205Z,101624.97
2022-09-23T04:51:43.351Z,101633.84
2022-09-23T04:54:14.293Z,101633.94
2022-09-23T04:56:42.998Z,101637.47
2022-09-23T04:59:10.974Z,101635.66
2022-09-23T05:01:40.582Z,101622.44
2022-09-23T05:04:13.257Z,101619.84
2022-09-23T05:06:45.054Z,101615.34
2022-09-23T05:09:18.615Z,101618.88
2022-09-23T05:11:47.133Z,101625.09
2022-09-23T05:14:15.347Z,101620.63
2022-09-23T05:16:44.676Z,101631.31
2022-09-23T05:19:13.460Z,101622.44
2022-09-23T05:21:41.633Z,101622.44
2022-09-23T05:24:11.973Z,101631.31
2022-09-23T05:26:40.902Z,101617.94
2022-09-23T05:29:09.103Z,101615.25
2022-09-23T05:31:37.875Z,101619.75
2022-09-23T05:34:07.272Z,101635.81
2022-09-23T05:36:38.765Z,101626.06
2022-09-23T05:39:08.028Z,101622.44
2022-09-23T05:41:36.549Z,101630.53
2022-09-23T05:44:04.860Z,101625.25
2022-09-23T05:46:33.274Z,101624.28
2022-09-23T05:49:03.348Z,101633.28
2022-09-23T05:51:35.675Z,101632.31
2022-09-23T05:54:04.563Z,101635.00
2022-09-23T05:56:34.048Z,101635.91
2022-09-23T05:59:06.133Z,101632.28
2022-09-23T06:01:38.030Z,101632.28
2022-09-23T06:04:14.107Z,101637.63
2022-09-23T06:06:44.213Z,101630.53
2022-09-23T06:09:15.613Z,101628.78
2022-09-23T06:11:44.048Z,101634.13
2022-09-23T06:14:13.887Z,101636.75
2022-09-23T06:16:43.096Z,101631.41
2022-09-23T06:19:11.115Z,101632.19
2022-09-23T06:21:40.460Z,101633.13
2022-09-23T06:24:14.186Z,101635.94
2022-09-23T06:26:45.084Z,101627.19
2022-09-23T06:29:13.569Z,101628.06
2022-09-23T06:31:42.124Z,101628.97
2022-09-23T06:34:13.197Z,101629.81
2022-09-23T06:36:45.091Z,101631.56
2022-09-23T06:39:17.346Z,101627.91
2022-09-23T06:41:45.681Z,101633.28
2022-09-23T06:44:13.850Z,101636.81
2022-09-23T06:46:41.968Z,101635.00
2022-09-23T06:49:12.512Z,101625.25
2022-09-23T06:51:41.087Z,101626.97
2022-09-23T06:54:09.583Z,101625.25
2022-09-23T06:56:39.824Z,101626.97
2022-09-23T06:59:10.402Z,101625.25
2022-09-23T07:01:38.473Z,101623.44
2022-09-23T07:04:07.645Z,101626.09
2022-09-23T07:06:36.135Z,101623.44
2022-09-23T07:09:04.970Z,101629.66
2022-09-23T07:11:32.951Z,101633.28
2022-09-23T07:14:04.897Z,101637.75
2022-09-23T07:16:38.678Z,101637.75
2022-09-23T07:19:09.061Z,101628.06
2022-09-23T07:21:37.750Z,101631.78
2022-09-23T07:24:06.134Z,101632.66
2022-09-23T07:26:34.808Z,101628.25
2022-09-23T07:29:06.729Z,101631.78
2022-09-23T07:31:39.706Z,101628.06
2022-09-23T07:34:09.890Z,101621.00
2022-09-23T07:36:40.541Z,101618.31
2022-09-23T07:39:09.944Z,101621.00
2022-09-23T07:41:38.067Z,101633.41
2022-09-23T07:44:08.809Z,101627.16
2022-09-23T07:46:37.387Z,101618.25
2022-09-23T07:49:06.434Z,101624.53
2022-09-23T07:51:37.062Z,101621.84
2022-09-23T07:54:07.514Z,101624.63
2022-09-23T07:56:36.195Z,101623.03
2022-09-23T07:59:09.892Z,101625.75
2022-09-23T08:01:39.457Z,101624.91
2022-09-23T08:04:10.301Z,101622.31
2022-09-23T08:06:42.351Z,101628.53
2022-09-23T08:09:11.062Z,101624.13
2022-09-23T08:11:41.829Z,101625.84
2022-09-23T08:14:13.602Z,101623.19
2022-09-23T08:16:41.753Z,101624.91
2022-09-23T08:19:09.803Z,101630.25
2022-09-23T08:21:39.471Z,101631.13
2022-09-23T08:24:07.847Z,101631.13
2022-09-23T08:26:36.551Z,101632.88
2022-09-23T08:29:05.095Z,101641.81
2022-09-23T08:31:34.378Z,101632.16
2022-09-23T08:34:02.617Z,101638.38
2022-09-23T08:36:32.053Z,101630.25
2022-09-23T08:39:00.030Z,101623.97
2022-09-23T08:41:37.377Z,101631.94
2022-09-23T08:44:13.759Z,101635.47
2022-09-23T08:46:47.626Z,101629.25
2022-09-23T08:49:23.152Z,101632.78
2022-09-23T08:51:54.859Z,101628.25
2022-09-23T08:54:23.306Z,101631.78
2022-09-23T08:56:53.237Z,101631.69
2022-09-23T08:59:28.839Z,101629.88
2022-09-23T09:02:01.245Z,101635.31
2022-09-23T09:04:39.915Z,101629.25
2022-09-23T09:10:07.507Z,101626.47
2022-09-23T09:12:42.480Z,101628.25
2022-09-23T09:15:14.904Z,101627.19
2022-09-23T09:17:54.128Z,101628.97
2022-09-23T09:20:30.921Z,101628.00
2022-09-23T09:23:00.649Z,101622.56
2022-09-23T09:25:41.077Z,101617.22
2022-09-23T09:28:19.948Z,101618.94
2022-09-23T09:30:53.912Z,101620.69
2022-09-23T09:33:30.495Z,101611.72
2022-09-23T09:36:18.436Z,101611.72
2022-09-23T09:38:46.380Z,101605.41
2022-09-23T09:41:17.805Z,101603.59
2022-09-23T09:43:56.304Z,101605.41
2022-09-23T09:46:36.997Z,101592.03
2022-09-23T09:49:13.189Z,101599.06
2022-09-23T09:51:42.150Z,101591.03
2022-09-23T09:54:24.710Z,101594.56
2022-09-23T09:56:53.563Z,101592.75
2022-09-23T09:59:26.891Z,101591.78
2022-09-23T10:02:14.693Z,101589.13
2022-09-23T10:04:44.553Z,101584.66
2022-09-23T10:07:15.570Z,101582.84
2022-09-23T10:09:50.743Z,101578.34
2022-09-23T10:12:20.192Z,101576.53
2022-09-23T10:14:51.347Z,101585.44
2022-09-23T10:17:22.576Z,101586.28
2022-09-23T10:20:00.845Z,101583.56
2022-09-23T10:22:33.836Z,101588.03
2022-09-23T10:25:05.789Z,101589.84
2022-09-23T10:27:35.857Z,101583.56
2022-09-23T10:30:06.679Z,101591.59
2022-09-23T10:32:38.679Z,101586.25
2022-09-23T10:35:21.082Z,101587.00
2022-09-23T10:37:51.324Z,101584.34
2022-09-23T10:40:43.361Z,101584.28
2022-09-23T10:43:44.166Z,101582.47
2022-09-23T10:46:36.783Z,101584.19
2022-09-23T10:49:33.371Z,101577.97
2022-09-23T10:52:22.286Z,101583.22
2022-09-23T10:55:03.560Z,101572.47
2022-09-23T10:57:46.917Z,101575.06
2022-09-23T11:00:23.243Z,101568.69
2022-09-23T11:03:18.654Z,101575.75
2022-09-23T11:05:58.098Z,101569.53
2022-09-23T11:08:43.738Z,101565.91
2022-09-23T11:11:25.192Z,101569.44
2022-09-23T11:14:17.001Z,101567.63
2022-09-23T11:17:05.852Z,101567.63
2022-09-23T11:19:56.736Z,101563.16
2022-09-23T11:22:41.765Z,101564.03
2022-09-23T11:25:26.522Z,101564.91
2022-09-23T11:28:17.585Z,101557.72
2022-09-23T11:30:54.712Z,101553.31
2022-09-23T11:33:38.541Z,101558.59
2022-09-23T11:36:11.422Z,101549.69
2022-09-23T11:38:44.672Z,101562.13
2022-09-23T11:41:24.785Z,101560.41
2022-09-23T11:43:57.134Z,101556.78
2022-09-23T11:46:33.028Z,101546.16
2022-09-23T11:49:09.679Z,101551.41
2022-09-23T11:51:44.845Z,101548.75
2022-09-23T11:54:20.894Z,101534.50
2022-09-23T11:56:54.530Z,101546.06
2022-09-23T11:59:39.682Z,101542.44
2022-09-23T12:02:21.813Z,101538.03
2022-09-23T12:05:03.348Z,101528.19
2022-09-23T12:07:44.958Z,101523.69
2022-09-23T12:10:13.754Z,101513.22
2022-09-23T12:12:52.597Z,101514.78
2022-09-23T12:15:35.529Z,101520.16
2022-09-23T12:18:35.917Z,101521.00
2022-09-23T12:21:48.750Z,101520.09
2022-09-23T12:24:46.491Z,101522.78
2022-09-23T12:27:24.473Z,101518.28
2022-09-23T12:29:59.647Z,101514.72
2022-09-23T12:32:28.279Z,101518.28
2022-09-23T12:34:56.913Z,101518.34
2022-09-23T12:37:28.680Z,101515.59
2022-09-23T12:40:02.958Z,101518.28
2022-09-23T12:42:31.472Z,101509.28
2022-09-23T12:45:20.299Z,101504.88
2022-09-23T12:47:48.278Z,101502.19
2022-09-23T12:50:51.907Z,101490.53
2022-09-23T12:53:53.099Z,101489.59
2022-09-23T12:56:24.529Z,101485.09
2022-09-23T12:59:00.595Z,101480.53
2022-09-23T13:01:38.645Z,101484.94
2022-09-23T13:04:24.304Z,101482.25
2022-09-23T13:06:59.885Z,101481.41
2022-09-23T13:09:31.165Z,101475.09
2022-09-23T13:12:01.858Z,101477.69
2022-09-23T13:14:33.049Z,101475.88
2022-09-23T13:17:02.719Z,101472.34
2022-09-23T13:19:50.143Z,101475.88
2022-09-23T13:22:42.590Z,101462.50
2022-09-23T13:25:20.697Z,101466.03
2022-09-23T13:27:51.674Z,101473.09
2022-09-23T13:30:25.963Z,101465.06
2022-09-23T13:33:12.744Z,101457.91
2022-09-23T13:35:46.817Z,101456.97
2022-09-23T13:38:26.403Z,101461.44
2022-09-23T13:40:55.887Z,101454.19
2022-09-23T13:43:26.430Z,101463.19
2022-09-23T13:45:55.237Z,101464.91
2022-09-23T13:48:28.177Z,101462.16
2022-09-23T13:50:56.754Z,101461.28
2022-09-23T13:53:29.111Z,101454.97
2022-09-23T13:56:04.816Z,101460.31
2022-09-23T13:58:34.092Z,101448.75
2022-09-23T14:01:04.287Z,101454.09
2022-09-23T14:03:37.259Z,101452.22
2022-09-23T14:06:09.812Z,101449.63
2022-09-23T14:08:40.894Z,101454.03
2022-09-23T14:11:08.853Z,101452.13
2022-09-23T14:13:43.555Z,101448.59
2022-09-23T14:16:14.960Z,101446.78
2022-09-23T14:18:46.582Z,101441.41
2022-09-23T14:21:28.928Z,101445.84
2022-09-23T14:23:57.384Z,101439.53
2022-09-23T14:26:25.979Z,101438.69
2022-09-23T14:28:54.867Z,101426.22
2022-09-23T14:31:24.266Z,101423.47
2022-09-23T14:33:53.634Z,101422.50
2022-09-23T14:36:39.445Z,101411.78
2022-09-23T14:39:09.730Z,101424.22
2022-09-23T14:41:41.137Z,101411.69
2022-09-23T14:44:21.558Z,101410.78
2022-09-23T14:46:56.517Z,101408.09
2022-09-23T14:49:26.710Z,101411.53
2022-09-23T14:51:56.933Z,101407.13
2022-09-23T14:54:37.884Z,101407.94
2022-09-23T14:57:25.491Z,101404.31
2022-09-23T14:59:56.042Z,101401.66
2022-09-23T15:02:32.879Z,101403.38
2022-09-23T15:05:31.987Z,101406.91
2022-09-23T15:08:03.819Z,101404.22
2022-09-23T15:10:34.586Z,101401.56
2022-09-23T15:13:08.461Z,101405.94
2022-09-23T15:15:37.340Z,101399.81
2022-09-23T15:18:08.213Z,101394.38
2022-09-23T15:20:37.710Z,101400.59
2022-09-23T15:23:05.644Z,101392.66
2022-09-23T15:25:35.595Z,101397.16
2022-09-23T15:28:18.295Z,101397.16
2022-09-23T15:30:46.845Z,101391.78
2022-09-23T15:33:16.462Z,101396.31
2022-09-23T15:35:48.515Z,101398.88
2022-09-23T15:38:17.596Z,101398.97
2022-09-23T15:40:45.623Z,101401.47
2022-09-23T15:43:20.562Z,101399.66
2022-09-23T15:45:52.851Z,101395.16
2022-09-23T15:48:23.219Z,101395.94
2022-09-23T15:50:54.374Z,101399.47
2022-09-23T15:53:24.704Z,101402.09
2022-09-23T15:55:52.804Z,101393.09
2022-09-23T15:58:21.324Z,101391.25
2022-09-23T16:00:55.738Z,101399.25
2022-09-23T16:03:28.998Z,101394.66
2022-09-23T16:06:03.154Z,101383.91
2022-09-23T16:08:33.106Z,101383.84
2022-09-23T16:11:01.450Z,101386.44
2022-09-23T16:13:29.345Z,101379.16
2022-09-23T16:15:57.776Z,101385.31
2022-09-23T16:18:25.727Z,101383.50
2022-09-23T16:20:54.727Z,101379.84
2022-09-23T16:23:35.227Z,101393.25
2022-09-23T16:26:08.856Z,101391.38
2022-09-23T16:28:36.952Z,101380.53
2022-09-23T16:31:05.057Z,101385.84
2022-09-23T16:33:33.162Z,101380.47
2022-09-23T16:36:05.026Z,101388.41
2022-09-23T16:38:34.376Z,101375.88
2022-09-23T16:41:03.518Z,101372.25
2022-09-23T16:43:32.719Z,101378.50
2022-09-23T16:46:01.104Z,101378.38
2022-09-23T16:48:31.574Z,101373.03
2022-09-23T16:51:05.744Z,101374.75
2022-09-23T16:53:36.965Z,101379.19
2022-09-23T16:56:09.678Z,101375.59
2022-09-23T16:58:38.121Z,101380.91
2022-09-23T17:01:25.325Z,101380.81
2022-09-23T17:03:55.172Z,101387.03
2022-09-23T17:06:25.098Z,101391.53
2022-09-23T17:08:55.432Z,101390.56
2022-09-23T17:11:23.756Z,101392.31
2022-09-23T17:13:51.903Z,101394.13
2022-09-23T17:16:35.917Z,101390.50
2022-09-23T17:19:08.073Z,101390.50
2022-09-23T17:21:35.972Z,101399.41
2022-09-23T17:24:07.919Z,101390.41
2022-09-23T17:26:36.263Z,101395.75
2022-09-23T17:29:04.729Z,101386.78
2022-09-23T17:31:32.671Z,101381.44
2022-09-23T17:34:00.833Z,101384.09
2022-09-23T17:36:29.050Z,101386.69
2022-09-23T17:38:57.253Z,101385.81
2022-09-23T17:41:26.870Z,101378.66
2022-09-23T17:43:56.680Z,101387.53
2022-09-23T17:46:24.618Z,101379.59
2022-09-23T17:48:55.790Z,101368.78
2022-09-23T17:51:25.327Z,101379.41
2022-09-23T17:53:53.625Z,101375.78
2022-09-23T17:56:22.739Z,101380.19
2022-09-23T17:58:53.447Z,101376.56
2022-09-23T18:01:23.141Z,101380.09
2022-09-23T18:03:55.036Z,101379.22
2022-09-23T18:06:24.628Z,101378.28
2022-09-23T18:08:54.786Z,101371.19
2022-09-23T18:11:24.731Z,101372.84
2022-09-23T18:13:56.004Z,101373.69
2022-09-23T18:16:28.283Z,101379.06
2022-09-23T18:19:01.383Z,101378.09
2022-09-23T18:21:31.788Z,101371.81
2022-09-23T18:24:28.106Z,101375.41
2022-09-23T18:26:51.174Z,101373.59
2022-09-23T18:29:20.665Z,101378.09
2022-09-23T18:31:51.145Z,101377.19
2022-09-23T18:34:20.377Z,101370.91
2022-09-23T18:36:48.538Z,101382.53
2022-09-23T18:39:16.783Z,101377.19
2022-09-23T18:41:44.706Z,101382.53
2022-09-23T18:44:12.764Z,101380.78
2022-09-23T18:46:42.801Z,101382.53
2022-09-23T18:49:28.132Z,101383.47
2022-09-23T18:51:58.146Z,101385.22
2022-09-23T18:54:28.420Z,101387.91
2022-09-23T18:56:57.516Z,101386.16
2022-09-23T18:59:29.630Z,101396.88
2022-09-23T19:01:58.871Z,101390.56
2022-09-23T19:04:28.155Z,101391.50
2022-09-23T19:06:57.948Z,101382.59
2022-09-23T19:09:26.162Z,101390.75
2022-09-23T19:11:54.356Z,101383.56
2022-09-23T19:14:22.455Z,101385.38
2022-09-23T19:16:50.959Z,101380.97
2022-09-23T19:19:20.455Z,101380.09
2022-09-23T19:21:48.361Z,101386.31
2022-09-23T19:24:20.014Z,101386.31
2022-09-23T19:26:48.540Z,101381.84
2022-09-23T19:29:19.437Z,101379.06
2022-09-23T19:31:47.488Z,101387.09
2022-09-23T19:34:17.215Z,101379.06
2022-09-23T19:36:47.808Z,101381.75
2022-09-23T19:39:18.257Z,101383.63
2022-09-23T19:41:46.611Z,101382.72
2022-09-23T19:44:15.210Z,101385.38
2022-09-23T19:46:45.457Z,101385.28
2022-09-23T19:49:13.892Z,101380.03
2022-09-23T19:51:44.017Z,101387.09
2022-09-23T19:54:20.629Z,101388.94
2022-09-23T19:56:51.510Z,101378.19
2022-09-23T19:59:19.707Z,101380.03
2022-09-23T20:01:48.711Z,101379.16
2022-09-23T20:04:17.211Z,101383.63
2022-09-23T20:06:46.027Z,101379.22
2022-09-23T20:09:15.473Z,101380.09
2022-09-23T20:11:44.289Z,101383.63
2022-09-23T20:14:12.931Z,101370.22
2022-09-23T20:16:41.168Z,101372.91
2022-09-23T20:19:11.133Z,101368.50
2022-09-23T20:21:39.083Z,101372.91
2022-09-23T20:24:11.985Z,101363.16
2022-09-23T20:26:58.841Z,101364.97
2022-09-23T20:29:26.747Z,101361.44
2022-09-23T20:31:54.761Z,101361.53
2022-09-23T20:34:22.949Z,101358.06
2022-09-23T20:36:50.950Z,101359.88
2022-09-23T20:39:18.891Z,101359.88
2022-09-23T20:41:48.210Z,101356.25
2022-09-23T20:44:16.155Z,101354.50
2022-09-23T20:46:48.201Z,101350.03
2022-09-23T20:49:16.405Z,101343.69
2022-09-23T20:51:45.405Z,101349.91
2022-09-23T20:54:13.453Z,101344.66
2022-09-23T20:56:41.501Z,101340.16
2022-09-23T20:59:14.885Z,101341.00
2022-09-23T21:01:43.000Z,101339.19
2022-09-23T21:04:13.151Z,101332.91
2022-09-23T21:06:42.272Z,101338.25
2022-09-23T21:09:10.208Z,101332.91
2022-09-23T21:11:38.229Z,101332.91
2022-09-23T21:14:06.445Z,101332.03
2022-09-23T21:16:36.086Z,101332.91
2022-09-23T21:19:04.179Z,101327.53
2022-09-23T21:21:32.141Z,101325.72
2022-09-23T21:24:24.454Z,101329.25
2022-09-23T21:26:50.412Z,101324.84
2022-09-23T21:29:20.499Z,101334.63
2022-09-23T21:31:49.935Z,101330.13
2022-09-23T21:34:20.224Z,101334.50
2022-09-23T21:36:48.872Z,101330.00
2022-09-23T21:39:16.760Z,101336.28
2022-09-23T21:41:44.712Z,101330.97
2022-09-23T21:44:12.617Z,101327.34
2022-09-23T21:46:40.715Z,101324.66
2022-09-23T21:49:10.049Z,101330.97
2022-09-23T21:51:40.819Z,101325.63
2022-09-23T21:54:12.960Z,101321.13
2022-09-23T21:56:41.281Z,101316.59
2022-09-23T21:59:09.604Z,101323.72
2022-09-23T22:01:39.261Z,101325.44
2022-09-23T22:04:14.574Z,101319.22
2022-09-23T22:06:42.739Z,101317.50
2022-09-23T22:09:13.881Z,101319.22
2022-09-23T22:12:00.615Z,101319.22
2022-09-23T22:14:29.570Z,101322.75
2022-09-23T22:16:59.942Z,101318.38
2022-09-23T22:19:35.310Z,101329.94
2022-09-23T22:22:08.080Z,101320.09
2022-09-23T22:24:38.585Z,101323.72
2022-09-23T22:27:08.179Z,101317.41
2022-09-23T22:29:53.328Z,101320.19
2022-09-23T22:32:55.091Z,101320.09
2022-09-23T22:35:24.890Z,101321.03
2022-09-23T22:37:52.808Z,101317.50
2022-09-23T22:40:21.226Z,101310.31
2022-09-23T22:42:49.730Z,101311.25
2022-09-23T22:45:17.896Z,101305.88
2022-09-23T22:47:46.157Z,101310.31
2022-09-23T22:50:16.231Z,101309.34
2022-09-23T22:52:45.589Z,101311.19
2022-09-23T22:55:13.856Z,101308.50
2022-09-23T22:57:41.777Z,101305.88
2022-09-23T23:00:12.185Z,101304.09
2022-09-23T23:02:40.400Z,101299.66
2022-09-23T23:05:09.072Z,101304.09
2022-09-23T23:07:37.361Z,101298.72
2022-09-23T23:10:10.054Z,101305.88
2022-09-23T23:12:41.522Z,101297.84
2022-09-23T23:15:12.391Z,101292.47
2022-09-23T23:17:41.268Z,101297.94
2022-09-23T23:20:09.995Z,101294.31
2022-09-23T23:22:38.009Z,101297.94
2022-09-23T23:25:08.192Z,101297.94
2022-09-23T23:27:36.209Z,101304.28
2022-09-23T23:30:08.891Z,101298.13
2022-09-23T23:32:36.894Z,101299.88
2022-09-23T23:35:05.592Z,101304.34
2022-09-23T23:37:33.499Z,101297.19
2022-09-23T23:40:03.827Z,101294.59
2022-09-23T23:42:34.595Z,101293.72
2022-09-23T23:45:06.199Z,101293.72
2022-09-23T23:47:36.423Z,101293.81
2022-09-23T23:50:05.549Z,101293.81
2022-09-23T23:52:33.449Z,101292.06
2022-09-23T23:55:04.318Z,101293.81
2022-09-23T23:57:33.834Z,101289.50
